createdAt,value
2023-02-15T00:00:07.779Z,429.82
2023-02-15T00:00:17.780Z,429.85
2023-02-15T00:00:27.785Z,429.83
2023-02-15T00:00:37.777Z,429.87
2023-02-15T00:00:47.788Z,429.88
2023-02-15T00:00:57.776Z,429.87
2023-02-15T00:01:07.786Z,429.90
2023-02-15T00:01:17.787Z,429.91
2023-02-15T00:01:27.783Z,429.87
2023-02-15T00:01:37.788Z,429.90
2023-02-15T00:01:47.829Z,429.85
2023-02-15T00:01:57.808Z,429.83
2023-02-15T00:02:07.914Z,430.06
2023-02-15T00:02:17.799Z,429.98
2023-02-15T00:02:27.804Z,429.91
2023-02-15T00:02:37.788Z,429.95
2023-02-15T00:02:47.809Z,429.85
2023-02-15T00:02:57.840Z,429.94
2023-02-15T00:03:07.806Z,429.85
2023-02-15T00:03:17.855Z,429.96
2023-02-15T00:03:27.823Z,429.91
2023-02-15T00:03:37.795Z,429.87
2023-02-15T00:03:47.797Z,429.94
2023-02-15T00:03:57.802Z,429.96
2023-02-15T00:04:07.801Z,430.07
2023-02-15T00:04:17.801Z,430.02
2023-02-15T00:04:27.803Z,429.95
2023-02-15T00:04:37.796Z,430.11
2023-02-15T00:04:47.800Z,430.05
2023-02-15T00:04:57.793Z,430.09
2023-02-15T00:05:07.801Z,430.16
2023-02-15T00:05:17.807Z,430.16
2023-02-15T00:05:27.807Z,430.19
2023-02-15T00:05:37.804Z,430.16
2023-02-15T00:05:47.803Z,430.23
2023-02-15T00:05:57.814Z,430.25
2023-02-15T00:06:07.816Z,430.25
2023-02-15T00:06:17.805Z,430.26
2023-02-15T00:06:27.801Z,430.32
2023-02-15T00:06:37.804Z,430.27
2023-02-15T00:06:47.809Z,430.37
2023-02-15T00:06:57.806Z,430.35
2023-02-15T00:07:07.805Z,430.30
2023-02-15T00:07:17.816Z,430.35
2023-02-15T00:07:27.815Z,430.30
2023-02-15T00:07:37.810Z,430.31
2023-02-15T00:07:47.828Z,430.33
2023-02-15T00:07:57.817Z,430.24
2023-02-15T00:08:07.808Z,430.26
2023-02-15T00:08:17.819Z,430.22
2023-02-15T00:08:27.812Z,430.18
2023-02-15T00:08:37.809Z,430.33
2023-02-15T00:08:47.825Z,430.25
2023-02-15T00:08:57.819Z,430.24
2023-02-15T00:09:07.809Z,430.07
2023-02-15T00:09:17.827Z,430.18
2023-02-15T00:09:27.810Z,430.14
2023-02-15T00:09:37.814Z,430.03
2023-02-15T00:09:47.888Z,430.12
2023-02-15T00:09:57.821Z,430.06
2023-02-15T00:10:07.825Z,430.04
2023-02-15T00:10:17.842Z,430.06
2023-02-15T00:10:27.821Z,430.04
2023-02-15T00:10:37.826Z,429.98
2023-02-15T00:10:47.826Z,430.02
2023-02-15T00:10:57.822Z,429.95
2023-02-15T00:11:07.821Z,429.97
2023-02-15T00:11:17.832Z,429.94
2023-02-15T00:11:27.820Z,429.92
2023-02-15T00:11:37.825Z,429.85
2023-02-15T00:11:47.834Z,429.95
2023-02-15T00:11:57.827Z,429.83
2023-02-15T00:12:07.836Z,429.95
2023-02-15T00:12:17.853Z,429.85
2023-02-15T00:12:27.831Z,429.86
2023-02-15T00:12:37.828Z,429.95
2023-02-15T00:12:47.839Z,429.93
2023-02-15T00:12:57.833Z,429.92
2023-02-15T00:13:07.830Z,429.86
2023-02-15T00:13:17.850Z,429.92
2023-02-15T00:13:27.836Z,429.95
2023-02-15T00:13:37.835Z,429.88
2023-02-15T00:13:47.838Z,429.96
2023-02-15T00:13:57.835Z,429.94
2023-02-15T00:14:07.837Z,429.90
2023-02-15T00:14:17.840Z,429.95
2023-02-15T00:14:27.837Z,429.91
2023-02-15T00:14:37.838Z,429.91
2023-02-15T00:14:47.841Z,430.00
2023-02-15T00:14:57.847Z,429.92
2023-02-15T00:15:07.857Z,429.88
2023-02-15T00:15:17.853Z,429.96
2023-02-15T00:15:27.853Z,429.93
2023-02-15T00:15:37.844Z,429.84
2023-02-15T00:15:47.863Z,429.90
2023-02-15T00:15:57.847Z,429.86
2023-02-15T00:16:07.908Z,429.91
2023-02-15T00:16:17.876Z,429.89
2023-02-15T00:16:27.894Z,429.94
2023-02-15T00:16:37.880Z,429.88
2023-02-15T00:16:47.921Z,429.89
2023-02-15T00:16:57.860Z,429.98
2023-02-15T00:17:07.856Z,429.97
2023-02-15T00:17:17.858Z,429.96
2023-02-15T00:17:27.861Z,429.89
2023-02-15T00:17:37.855Z,429.96
2023-02-15T00:17:47.851Z,429.96
2023-02-15T00:17:57.859Z,429.89
2023-02-15T00:18:07.854Z,429.94
2023-02-15T00:18:17.864Z,429.91
2023-02-15T00:18:27.871Z,429.92
2023-02-15T00:18:37.860Z,429.92
2023-02-15T00:18:47.889Z,429.98
2023-02-15T00:18:57.861Z,429.94
2023-02-15T00:19:07.868Z,429.91
2023-02-15T00:19:17.863Z,430.00
2023-02-15T00:19:27.862Z,429.90
2023-02-15T00:19:37.864Z,429.99
2023-02-15T00:19:47.889Z,429.93
2023-02-15T00:19:57.881Z,429.95
2023-02-15T00:20:07.867Z,429.96
2023-02-15T00:20:17.873Z,429.97
2023-02-15T00:20:27.877Z,429.92
2023-02-15T00:20:37.864Z,429.93
2023-02-15T00:20:47.892Z,429.94
2023-02-15T00:20:57.865Z,429.92
2023-02-15T00:21:07.870Z,429.96
2023-02-15T00:21:17.872Z,429.94
2023-02-15T00:21:27.872Z,429.87
2023-02-15T00:21:37.870Z,429.92
2023-02-15T00:21:47.903Z,429.80
2023-02-15T00:21:57.873Z,430.00
2023-02-15T00:22:07.885Z,429.94
2023-02-15T00:22:17.878Z,429.86
2023-02-15T00:22:27.879Z,429.84
2023-02-15T00:22:37.881Z,429.83
2023-02-15T00:22:47.911Z,429.88
2023-02-15T00:22:57.874Z,429.89
2023-02-15T00:23:07.885Z,429.86
2023-02-15T00:23:17.881Z,429.90
2023-02-15T00:23:27.874Z,429.89
2023-02-15T00:23:37.885Z,429.78
2023-02-15T00:23:47.897Z,429.78
2023-02-15T00:23:57.878Z,429.86
2023-02-15T00:24:07.888Z,429.80
2023-02-15T00:24:17.881Z,429.85
2023-02-15T00:24:27.883Z,429.78
2023-02-15T00:24:37.900Z,429.74
2023-02-15T00:24:47.900Z,429.89
2023-02-15T00:24:57.901Z,429.90
2023-02-15T00:25:07.887Z,429.82
2023-02-15T00:25:17.893Z,429.83
2023-02-15T00:25:27.883Z,429.74
2023-02-15T00:25:37.889Z,429.71
2023-02-15T00:25:47.891Z,429.70
2023-02-15T00:25:57.884Z,429.70
2023-02-15T00:26:07.901Z,429.77
2023-02-15T00:26:17.887Z,429.66
2023-02-15T00:26:27.888Z,429.70
2023-02-15T00:26:37.888Z,429.67
2023-02-15T00:26:47.904Z,429.69
2023-02-15T00:26:57.890Z,429.76
2023-02-15T00:27:07.917Z,429.69
2023-02-15T00:27:17.892Z,429.70
2023-02-15T00:27:27.901Z,429.75
2023-02-15T00:27:37.902Z,429.70
2023-02-15T00:27:47.903Z,429.88
2023-02-15T00:27:57.898Z,429.82
2023-02-15T00:28:07.912Z,429.91
2023-02-15T00:28:17.906Z,429.87
2023-02-15T00:28:27.896Z,429.90
2023-02-15T00:28:37.910Z,429.87
2023-02-15T00:28:47.907Z,429.90
2023-02-15T00:28:57.900Z,429.92
2023-02-15T00:29:07.911Z,429.91
2023-02-15T00:29:17.905Z,429.90
2023-02-15T00:29:27.915Z,429.76
2023-02-15T00:29:37.904Z,429.98
2023-02-15T00:29:47.926Z,430.00
2023-02-15T00:29:57.947Z,429.98
2023-02-15T00:30:07.960Z,429.91
2023-02-15T00:30:17.981Z,430.00
2023-02-15T00:30:28.036Z,429.98
2023-02-15T00:30:37.941Z,430.01
2023-02-15T00:30:48.009Z,430.04
2023-02-15T00:30:57.997Z,430.08
2023-02-15T00:31:07.981Z,430.10
2023-02-15T00:31:17.970Z,430.16
2023-02-15T00:31:28.023Z,430.15
2023-02-15T00:31:38.015Z,430.11
2023-02-15T00:31:48.003Z,430.18
2023-02-15T00:31:57.916Z,430.22
2023-02-15T00:32:07.935Z,430.12
2023-02-15T00:32:17.929Z,430.20
2023-02-15T00:32:27.925Z,430.33
2023-02-15T00:32:37.919Z,430.15
2023-02-15T00:32:47.924Z,430.32
2023-02-15T00:32:57.921Z,430.30
2023-02-15T00:33:07.941Z,430.34
2023-02-15T00:33:17.925Z,430.38
2023-02-15T00:33:27.926Z,430.45
2023-02-15T00:33:37.934Z,430.47
2023-02-15T00:33:47.926Z,430.56
2023-02-15T00:33:57.929Z,430.56
2023-02-15T00:34:07.933Z,430.58
2023-02-15T00:34:17.969Z,430.56
2023-02-15T00:34:27.947Z,430.65
2023-02-15T00:34:37.931Z,430.59
2023-02-15T00:34:47.934Z,430.80
2023-02-15T00:34:57.945Z,430.70
2023-02-15T00:35:07.931Z,430.79
2023-02-15T00:35:17.947Z,430.90
2023-02-15T00:35:27.938Z,430.86
2023-02-15T00:35:37.939Z,430.73
2023-02-15T00:35:47.938Z,430.89
2023-02-15T00:35:57.946Z,430.95
2023-02-15T00:36:07.940Z,430.96
2023-02-15T00:36:17.940Z,430.93
2023-02-15T00:36:27.946Z,430.96
2023-02-15T00:36:37.942Z,430.93
2023-02-15T00:36:47.943Z,431.05
2023-02-15T00:36:57.941Z,431.06
2023-02-15T00:37:07.947Z,431.02
2023-02-15T00:37:17.949Z,431.05
2023-02-15T00:37:27.959Z,431.08
2023-02-15T00:37:37.955Z,431.14
2023-02-15T00:37:47.949Z,431.13
2023-02-15T00:37:57.962Z,431.15
2023-02-15T00:38:07.946Z,431.28
2023-02-15T00:38:17.954Z,431.31
2023-02-15T00:38:27.955Z,431.26
2023-02-15T00:38:37.963Z,431.25
2023-02-15T00:38:47.947Z,431.21
2023-02-15T00:38:57.962Z,431.37
2023-02-15T00:39:07.954Z,431.31
2023-02-15T00:39:17.964Z,431.30
2023-02-15T00:39:27.960Z,431.40
2023-02-15T00:39:37.955Z,431.38
2023-02-15T00:39:47.961Z,431.37
2023-02-15T00:39:57.965Z,431.41
2023-02-15T00:40:07.960Z,431.37
2023-02-15T00:40:17.958Z,431.39
2023-02-15T00:40:27.960Z,431.40
2023-02-15T00:40:37.960Z,431.48
2023-02-15T00:40:47.956Z,431.48
2023-02-15T00:40:57.969Z,431.47
2023-02-15T00:41:07.959Z,431.63
2023-02-15T00:41:17.955Z,431.57
2023-02-15T00:41:27.963Z,431.53
2023-02-15T00:41:37.968Z,431.58
2023-02-15T00:41:48.000Z,431.58
2023-02-15T00:41:57.966Z,431.65
2023-02-15T00:42:07.971Z,431.67
2023-02-15T00:42:17.961Z,431.65
2023-02-15T00:42:27.976Z,431.59
2023-02-15T00:42:37.961Z,431.57
2023-02-15T00:42:47.962Z,431.67
2023-02-15T00:42:57.964Z,431.71
2023-02-15T00:43:08.013Z,431.65
2023-02-15T00:43:17.968Z,431.75
2023-02-15T00:43:27.990Z,431.69
2023-02-15T00:43:37.982Z,431.69
2023-02-15T00:43:47.972Z,431.73
2023-02-15T00:43:57.979Z,431.72
2023-02-15T00:44:07.979Z,431.77
2023-02-15T00:44:17.978Z,431.77
2023-02-15T00:44:27.984Z,431.73
2023-02-15T00:44:37.975Z,431.84
2023-02-15T00:44:47.976Z,431.80
2023-02-15T00:44:57.990Z,431.89
2023-02-15T00:45:07.995Z,431.88
2023-02-15T00:45:17.979Z,431.79
2023-02-15T00:45:27.998Z,431.84
2023-02-15T00:45:38.042Z,431.77
2023-02-15T00:45:48.050Z,431.81
2023-02-15T00:45:58.021Z,431.70
2023-02-15T00:46:08.032Z,431.83
2023-02-15T00:46:18.025Z,431.77
2023-02-15T00:46:27.993Z,431.80
2023-02-15T00:46:37.991Z,431.81
2023-02-15T00:46:47.987Z,431.83
2023-02-15T00:46:57.994Z,431.81
2023-02-15T00:47:07.991Z,431.85
2023-02-15T00:47:17.989Z,431.83
2023-02-15T00:47:28.004Z,431.87
2023-02-15T00:47:37.985Z,431.79
2023-02-15T00:47:47.997Z,431.80
2023-02-15T00:47:57.998Z,431.88
2023-02-15T00:48:07.989Z,431.78
2023-02-15T00:48:17.995Z,431.84
2023-02-15T00:48:27.987Z,431.77
2023-02-15T00:48:37.998Z,431.78
2023-02-15T00:48:48.006Z,431.79
2023-02-15T00:48:58.004Z,431.83
2023-02-15T00:49:07.992Z,431.76
2023-02-15T00:49:17.994Z,431.87
2023-02-15T00:49:28.014Z,431.85
2023-02-15T00:49:38.000Z,431.91
2023-02-15T00:49:48.010Z,431.90
2023-02-15T00:49:58.014Z,431.88
2023-02-15T00:50:08.006Z,431.83
2023-02-15T00:50:18.015Z,431.75
2023-02-15T00:50:28.000Z,431.77
2023-02-15T00:50:38.004Z,431.88
2023-02-15T00:50:48.008Z,431.78
2023-02-15T00:50:58.002Z,431.81
2023-02-15T00:51:08.012Z,431.72
2023-02-15T00:51:18.005Z,431.84
2023-02-15T00:51:28.000Z,431.76
2023-02-15T00:51:38.013Z,431.83
2023-02-15T00:51:48.004Z,431.80
2023-02-15T00:51:58.010Z,431.73
2023-02-15T00:52:08.008Z,431.76
2023-02-15T00:52:18.005Z,431.84
2023-02-15T00:52:28.006Z,431.80
2023-02-15T00:52:38.004Z,431.85
2023-02-15T00:52:48.009Z,431.78
2023-02-15T00:52:58.027Z,431.81
2023-02-15T00:53:08.012Z,431.75
2023-02-15T00:53:18.021Z,431.85
2023-02-15T00:53:28.016Z,431.80
2023-02-15T00:53:38.015Z,431.83
2023-02-15T00:53:48.015Z,431.88
2023-02-15T00:53:58.025Z,431.81
2023-02-15T00:54:08.022Z,431.85
2023-02-15T00:54:18.039Z,431.84
2023-02-15T00:54:28.023Z,431.89
2023-02-15T00:54:38.017Z,431.80
2023-02-15T00:54:48.023Z,431.89
2023-02-15T00:54:58.028Z,431.86
2023-02-15T00:55:08.022Z,431.89
2023-02-15T00:55:18.018Z,431.83
2023-02-15T00:55:28.024Z,431.93
2023-02-15T00:55:38.017Z,431.94
2023-02-15T00:55:48.020Z,432.00
2023-02-15T00:55:58.027Z,431.95
2023-02-15T00:56:08.023Z,431.95
2023-02-15T00:56:18.051Z,431.95
2023-02-15T00:56:28.029Z,431.95
2023-02-15T00:56:38.020Z,432.02
2023-02-15T00:56:48.029Z,431.95
2023-02-15T00:56:58.050Z,431.96
2023-02-15T00:57:08.035Z,431.97
2023-02-15T00:57:18.042Z,432.04
2023-02-15T00:57:28.034Z,432.08
2023-02-15T00:57:38.032Z,432.01
2023-02-15T00:57:48.043Z,432.04
2023-02-15T00:57:58.030Z,432.02
2023-02-15T00:58:08.036Z,432.09
2023-02-15T00:58:18.044Z,432.07
2023-02-15T00:58:28.079Z,432.09
2023-02-15T00:58:38.038Z,432.09
2023-02-15T00:58:48.072Z,432.17
2023-02-15T00:58:58.033Z,432.20
2023-02-15T00:59:08.039Z,432.17
2023-02-15T00:59:18.057Z,432.19
2023-02-15T00:59:28.045Z,432.29
2023-02-15T00:59:38.041Z,432.29
2023-02-15T00:59:48.046Z,432.38
2023-02-15T00:59:58.057Z,432.35
2023-02-15T01:00:08.041Z,432.44
2023-02-15T01:00:18.046Z,432.39
2023-02-15T01:00:28.045Z,432.44
2023-02-15T01:00:38.050Z,432.47
2023-02-15T01:00:48.057Z,432.51
2023-02-15T01:00:58.056Z,432.51
2023-02-15T01:01:08.068Z,432.53
2023-02-15T01:01:18.093Z,432.48
2023-02-15T01:01:28.080Z,432.55
2023-02-15T01:01:38.088Z,432.50
2023-02-15T01:01:48.070Z,432.56
2023-02-15T01:01:58.056Z,432.53
2023-02-15T01:02:08.059Z,432.59
2023-02-15T01:02:18.090Z,432.58
2023-02-15T01:02:28.056Z,432.57
2023-02-15T01:02:38.057Z,432.62
2023-02-15T01:02:48.056Z,432.59
2023-02-15T01:02:58.066Z,432.67
2023-02-15T01:03:08.053Z,432.60
2023-02-15T01:03:18.060Z,432.69
2023-02-15T01:03:28.062Z,432.65
2023-02-15T01:03:38.069Z,432.75
2023-02-15T01:03:48.068Z,432.69
2023-02-15T01:03:58.186Z,432.69
2023-02-15T01:04:08.077Z,432.79
2023-02-15T01:04:18.113Z,432.78
2023-02-15T01:04:28.164Z,432.79
2023-02-15T01:04:38.096Z,432.76
2023-02-15T01:04:48.080Z,432.70
2023-02-15T01:04:58.099Z,432.78
2023-02-15T01:05:08.078Z,432.74
2023-02-15T01:05:18.070Z,432.83
2023-02-15T01:05:28.077Z,432.78
2023-02-15T01:05:38.074Z,432.83
2023-02-15T01:05:48.083Z,432.79
2023-02-15T01:05:58.077Z,432.84
2023-02-15T01:06:08.074Z,432.79
2023-02-15T01:06:18.079Z,432.89
2023-02-15T01:06:28.090Z,432.82
2023-02-15T01:06:38.078Z,432.92
2023-02-15T01:06:48.085Z,432.93
2023-02-15T01:06:58.085Z,433.03
2023-02-15T01:07:08.078Z,432.95
2023-02-15T01:07:18.077Z,433.05
2023-02-15T01:07:28.078Z,432.99
2023-02-15T01:07:38.089Z,433.14
2023-02-15T01:07:48.089Z,433.17
2023-02-15T01:07:58.085Z,433.20
2023-02-15T01:08:08.081Z,433.29
2023-02-15T01:08:18.088Z,433.28
2023-02-15T01:08:28.091Z,433.24
2023-02-15T01:08:38.090Z,433.33
2023-02-15T01:08:48.092Z,433.37
2023-02-15T01:08:58.096Z,433.41
2023-02-15T01:09:08.227Z,433.46
2023-02-15T01:09:18.098Z,433.47
2023-02-15T01:09:28.091Z,433.49
2023-02-15T01:09:38.093Z,433.57
2023-02-15T01:09:48.106Z,433.59
2023-02-15T01:09:58.105Z,433.57
2023-02-15T01:10:08.092Z,433.63
2023-02-15T01:10:18.106Z,433.62
2023-02-15T01:10:28.093Z,433.67
2023-02-15T01:10:38.101Z,433.74
2023-02-15T01:10:48.136Z,433.68
2023-02-15T01:10:58.097Z,433.66
2023-02-15T01:11:08.103Z,433.78
2023-02-15T01:11:18.112Z,433.75
2023-02-15T01:11:28.101Z,433.85
2023-02-15T01:11:38.107Z,433.88
2023-02-15T01:11:48.102Z,433.84
2023-02-15T01:11:58.106Z,433.92
2023-02-15T01:12:08.109Z,433.85
2023-02-15T01:12:18.109Z,433.89
2023-02-15T01:12:28.117Z,434.00
2023-02-15T01:12:38.141Z,433.99
2023-02-15T01:12:48.112Z,434.02
2023-02-15T01:12:58.107Z,434.04
2023-02-15T01:13:08.117Z,434.12
2023-02-15T01:13:18.117Z,434.08
2023-02-15T01:13:28.119Z,434.14
2023-02-15T01:13:38.122Z,434.13
2023-02-15T01:13:48.118Z,434.19
2023-02-15T01:13:58.125Z,434.25
2023-02-15T01:14:08.117Z,434.20
2023-02-15T01:14:18.120Z,434.20
2023-02-15T01:14:28.118Z,434.31
2023-02-15T01:14:38.120Z,434.36
2023-02-15T01:14:48.119Z,434.36
2023-02-15T01:14:58.158Z,434.34
2023-02-15T01:15:08.134Z,434.37
2023-02-15T01:15:18.140Z,434.45
2023-02-15T01:15:28.124Z,434.48
2023-02-15T01:15:38.154Z,434.44
2023-02-15T01:15:48.214Z,434.46
2023-02-15T01:15:58.158Z,434.54
2023-02-15T01:16:08.153Z,434.48
2023-02-15T01:16:18.189Z,434.56
2023-02-15T01:16:28.224Z,434.59
2023-02-15T01:16:38.126Z,434.70
2023-02-15T01:16:48.127Z,434.66
2023-02-15T01:16:58.133Z,434.73
2023-02-15T01:17:08.131Z,434.62
2023-02-15T01:17:18.132Z,434.70
2023-02-15T01:17:28.142Z,434.69
2023-02-15T01:17:38.149Z,434.76
2023-02-15T01:17:48.129Z,434.77
2023-02-15T01:17:58.132Z,434.74
2023-02-15T01:18:08.139Z,434.82
2023-02-15T01:18:18.142Z,434.76
2023-02-15T01:18:28.136Z,434.84
2023-02-15T01:18:38.141Z,434.84
2023-02-15T01:18:48.133Z,434.81
2023-02-15T01:18:58.135Z,434.89
2023-02-15T01:19:08.159Z,434.92
2023-02-15T01:19:18.140Z,434.82
2023-02-15T01:19:28.154Z,434.87
2023-02-15T01:19:38.148Z,435.00
2023-02-15T01:19:48.146Z,434.95
2023-02-15T01:19:58.149Z,434.94
2023-02-15T01:20:08.152Z,435.04
2023-02-15T01:20:18.146Z,435.00
2023-02-15T01:20:28.144Z,435.11
2023-02-15T01:20:38.145Z,435.11
2023-02-15T01:20:48.144Z,435.08
2023-02-15T01:20:58.147Z,435.09
2023-02-15T01:21:08.150Z,435.13
2023-02-15T01:21:18.148Z,435.19
2023-02-15T01:21:28.167Z,435.22
2023-02-15T01:21:38.151Z,435.25
2023-02-15T01:21:48.153Z,435.23
2023-02-15T01:21:58.159Z,435.26
2023-02-15T01:22:08.187Z,435.33
2023-02-15T01:22:18.219Z,435.32
2023-02-15T01:22:28.153Z,435.33
2023-02-15T01:22:38.154Z,435.36
2023-02-15T01:22:48.157Z,435.37
2023-02-15T01:22:58.171Z,435.40
2023-02-15T01:23:08.161Z,435.44
2023-02-15T01:23:18.164Z,435.39
2023-02-15T01:23:28.159Z,435.44
2023-02-15T01:23:38.161Z,435.42
2023-02-15T01:23:48.161Z,435.40
2023-02-15T01:23:58.182Z,435.46
2023-02-15T01:24:08.180Z,435.39
2023-02-15T01:24:18.160Z,435.37
2023-02-15T01:24:28.163Z,435.48
2023-02-15T01:24:38.174Z,435.45
2023-02-15T01:24:48.166Z,435.47
2023-02-15T01:24:58.166Z,435.44
2023-02-15T01:25:08.441Z,435.50
2023-02-15T01:25:18.174Z,435.43
2023-02-15T01:25:28.180Z,435.51
2023-02-15T01:25:38.192Z,435.44
2023-02-15T01:25:48.177Z,435.50
2023-02-15T01:25:58.172Z,435.50
2023-02-15T01:26:08.237Z,435.61
2023-02-15T01:26:18.200Z,435.57
2023-02-15T01:26:28.174Z,435.58
2023-02-15T01:26:38.170Z,435.61
2023-02-15T01:26:48.182Z,435.67
2023-02-15T01:26:58.281Z,435.69
2023-02-15T01:27:08.171Z,435.67
2023-02-15T01:27:18.177Z,435.76
2023-02-15T01:27:28.177Z,435.78
2023-02-15T01:27:38.190Z,435.72
2023-02-15T01:27:48.180Z,435.82
2023-02-15T01:27:58.181Z,435.80
2023-02-15T01:28:08.173Z,435.88
2023-02-15T01:28:18.188Z,435.86
2023-02-15T01:28:28.183Z,435.89
2023-02-15T01:28:38.196Z,435.86
2023-02-15T01:28:48.179Z,435.95
2023-02-15T01:28:58.182Z,435.89
2023-02-15T01:29:08.186Z,435.92
2023-02-15T01:29:18.187Z,435.90
2023-02-15T01:29:28.192Z,435.98
2023-02-15T01:29:38.192Z,435.95
2023-02-15T01:29:48.185Z,436.05
2023-02-15T01:29:58.229Z,435.98
2023-02-15T01:30:08.236Z,436.05
2023-02-15T01:30:18.240Z,436.03
2023-02-15T01:30:28.185Z,436.13
2023-02-15T01:30:38.222Z,436.13
2023-02-15T01:30:48.303Z,436.17
2023-02-15T01:30:58.327Z,436.15
2023-02-15T01:31:08.318Z,436.16
2023-02-15T01:31:18.427Z,436.20
2023-02-15T01:31:28.333Z,436.15
2023-02-15T01:31:38.258Z,436.21
2023-02-15T01:31:48.263Z,436.17
2023-02-15T01:31:58.300Z,436.24
2023-02-15T01:32:08.241Z,436.22
2023-02-15T01:32:18.206Z,436.27
2023-02-15T01:32:28.195Z,436.21
2023-02-15T01:32:38.202Z,436.28
2023-02-15T01:32:48.203Z,436.24
2023-02-15T01:32:58.200Z,436.27
2023-02-15T01:33:08.201Z,436.29
2023-02-15T01:33:18.210Z,436.25
2023-02-15T01:33:28.208Z,436.31
2023-02-15T01:33:38.204Z,436.29
2023-02-15T01:33:48.216Z,436.31
2023-02-15T01:33:58.205Z,436.36
2023-02-15T01:34:08.219Z,436.30
2023-02-15T01:34:18.212Z,436.35
2023-02-15T01:34:28.216Z,436.33
2023-02-15T01:34:38.217Z,436.34
2023-02-15T01:34:48.210Z,436.33
2023-02-15T01:34:58.218Z,436.31
2023-02-15T01:35:08.226Z,436.35
2023-02-15T01:35:18.212Z,436.35
2023-02-15T01:35:28.216Z,436.34
2023-02-15T01:35:38.211Z,436.35
2023-02-15T01:35:48.215Z,436.35
2023-02-15T01:35:58.249Z,436.30
2023-02-15T01:36:08.211Z,436.36
2023-02-15T01:36:18.235Z,436.31
2023-02-15T01:36:28.219Z,436.38
2023-02-15T01:36:38.220Z,436.31
2023-02-15T01:36:48.227Z,436.30
2023-02-15T01:36:58.227Z,436.29
2023-02-15T01:37:08.248Z,436.36
2023-02-15T01:37:18.222Z,436.29
2023-02-15T01:37:28.228Z,436.34
2023-02-15T01:37:38.229Z,436.28
2023-02-15T01:37:48.233Z,436.32
2023-02-15T01:37:58.224Z,436.37
2023-02-15T01:38:08.233Z,436.34
2023-02-15T01:38:18.229Z,436.37
2023-02-15T01:38:28.236Z,436.33
2023-02-15T01:38:38.228Z,436.34
2023-02-15T01:38:48.225Z,436.41
2023-02-15T01:38:58.237Z,436.38
2023-02-15T01:39:08.228Z,436.46
2023-02-15T01:39:18.222Z,436.40
2023-02-15T01:39:28.241Z,436.41
2023-02-15T01:39:38.222Z,436.46
2023-02-15T01:39:48.235Z,436.46
2023-02-15T01:39:58.239Z,436.41
2023-02-15T01:40:08.234Z,436.42
2023-02-15T01:40:18.235Z,436.47
2023-02-15T01:40:28.229Z,436.41
2023-02-15T01:40:38.237Z,436.46
2023-02-15T01:40:48.237Z,436.46
2023-02-15T01:40:58.232Z,436.47
2023-02-15T01:41:08.235Z,436.45
2023-02-15T01:41:18.239Z,436.46
2023-02-15T01:41:28.264Z,436.41
2023-02-15T01:41:38.239Z,436.47
2023-02-15T01:41:48.245Z,436.41
2023-02-15T01:41:58.252Z,436.48
2023-02-15T01:42:08.254Z,436.52
2023-02-15T01:42:18.241Z,436.55
2023-02-15T01:42:28.244Z,436.49
2023-02-15T01:42:38.239Z,436.49
2023-02-15T01:42:48.240Z,436.57
2023-02-15T01:42:58.252Z,436.54
2023-02-15T01:43:08.243Z,436.62
2023-02-15T01:43:18.242Z,436.55
2023-02-15T01:43:28.247Z,436.54
2023-02-15T01:43:38.266Z,436.53
2023-02-15T01:43:48.244Z,436.56
2023-02-15T01:43:58.268Z,436.60
2023-02-15T01:44:08.249Z,436.59
2023-02-15T01:44:18.256Z,436.68
2023-02-15T01:44:28.260Z,436.65
2023-02-15T01:44:38.257Z,436.67
2023-02-15T01:44:48.254Z,436.61
2023-02-15T01:44:58.260Z,436.62
2023-02-15T01:45:08.257Z,436.63
2023-02-15T01:45:18.255Z,436.64
2023-02-15T01:45:28.270Z,436.75
2023-02-15T01:45:38.255Z,436.71
2023-02-15T01:45:48.302Z,436.75
2023-02-15T01:45:58.320Z,436.67
2023-02-15T01:46:08.299Z,436.67
2023-02-15T01:46:18.298Z,436.72
2023-02-15T01:46:28.319Z,436.69
2023-02-15T01:46:38.260Z,436.74
2023-02-15T01:46:48.269Z,436.80
2023-02-15T01:46:58.274Z,436.78
2023-02-15T01:47:08.266Z,436.79
2023-02-15T01:47:18.296Z,436.85
2023-02-15T01:47:28.273Z,436.82
2023-02-15T01:47:38.262Z,436.87
2023-02-15T01:47:48.272Z,436.86
2023-02-15T01:47:58.268Z,436.91
2023-02-15T01:48:08.274Z,436.89
2023-02-15T01:48:18.270Z,436.94
2023-02-15T01:48:28.268Z,436.89
2023-02-15T01:48:38.272Z,436.91
2023-02-15T01:48:48.270Z,436.87
2023-02-15T01:48:58.274Z,436.95
2023-02-15T01:49:08.258Z,436.95
2023-02-15T01:49:18.273Z,436.89
2023-02-15T01:49:28.272Z,436.85
2023-02-15T01:49:38.278Z,436.88
2023-02-15T01:49:48.276Z,436.87
2023-02-15T01:49:58.271Z,436.86
2023-02-15T01:50:08.283Z,436.90
2023-02-15T01:50:18.280Z,436.86
2023-02-15T01:50:28.276Z,436.95
2023-02-15T01:50:38.278Z,436.93
2023-02-15T01:50:48.286Z,436.90
2023-02-15T01:50:58.282Z,436.93
2023-02-15T01:51:08.283Z,436.86
2023-02-15T01:51:18.286Z,436.92
2023-02-15T01:51:28.294Z,436.89
2023-02-15T01:51:38.310Z,436.99
2023-02-15T01:51:48.303Z,436.96
2023-02-15T01:51:58.290Z,437.03
2023-02-15T01:52:08.287Z,436.99
2023-02-15T01:52:18.292Z,437.02
2023-02-15T01:52:28.298Z,437.01
2023-02-15T01:52:38.292Z,437.09
2023-02-15T01:52:48.296Z,437.11
2023-02-15T01:52:58.290Z,437.15
2023-02-15T01:53:08.290Z,437.12
2023-02-15T01:53:18.307Z,437.17
2023-02-15T01:53:28.289Z,437.13
2023-02-15T01:53:38.290Z,437.18
2023-02-15T01:53:48.299Z,437.17
2023-02-15T01:53:58.305Z,437.28
2023-02-15T01:54:08.304Z,437.24
2023-02-15T01:54:18.308Z,437.31
2023-02-15T01:54:28.340Z,437.25
2023-02-15T01:54:38.303Z,437.31
2023-02-15T01:54:48.305Z,437.33
2023-02-15T01:54:58.301Z,437.29
2023-02-15T01:55:09.307Z,437.40
2023-02-15T01:55:18.307Z,437.46
2023-02-15T01:55:28.301Z,437.37
2023-02-15T01:55:38.305Z,437.49
2023-02-15T01:55:48.300Z,437.46
2023-02-15T01:55:58.337Z,437.40
2023-02-15T01:56:08.305Z,437.55
2023-02-15T01:56:18.312Z,437.50
2023-02-15T01:56:28.316Z,437.53
2023-02-15T01:56:38.306Z,437.53
2023-02-15T01:56:48.313Z,437.60
2023-02-15T01:56:58.306Z,437.51
2023-02-15T01:57:08.306Z,437.57
2023-02-15T01:57:18.318Z,437.55
2023-02-15T01:57:28.310Z,437.57
2023-02-15T01:57:38.319Z,437.68
2023-02-15T01:57:48.321Z,437.64
2023-02-15T01:57:58.316Z,437.71
2023-02-15T01:58:08.309Z,437.65
2023-02-15T01:58:18.339Z,437.67
2023-02-15T01:58:28.317Z,437.72
2023-02-15T01:58:38.321Z,437.74
2023-02-15T01:58:48.320Z,437.83
2023-02-15T01:58:58.313Z,437.72
2023-02-15T01:59:08.313Z,437.84
2023-02-15T01:59:18.318Z,437.83
2023-02-15T01:59:28.320Z,437.82
2023-02-15T01:59:38.319Z,437.90
2023-02-15T01:59:48.324Z,437.84
2023-02-15T01:59:58.319Z,437.88
2023-02-15T02:00:08.374Z,437.94
2023-02-15T02:00:18.336Z,437.88
2023-02-15T02:00:28.852Z,437.87
2023-02-15T02:00:38.326Z,437.99
2023-02-15T02:00:48.330Z,437.92
2023-02-15T02:01:00.270Z,438.00
2023-02-15T02:01:08.366Z,438.01
2023-02-15T02:01:18.348Z,438.02
2023-02-15T02:01:28.356Z,438.09
2023-02-15T02:01:38.391Z,438.06
2023-02-15T02:01:48.353Z,438.03
2023-02-15T02:01:58.340Z,438.14
2023-02-15T02:02:08.330Z,438.09
2023-02-15T02:02:18.373Z,438.16
2023-02-15T02:02:28.392Z,438.10
2023-02-15T02:02:38.349Z,438.18
2023-02-15T02:02:48.403Z,438.17
2023-02-15T02:02:58.448Z,438.19
2023-02-15T02:03:08.374Z,438.11
2023-02-15T02:03:18.340Z,438.13
2023-02-15T02:03:28.339Z,438.07
2023-02-15T02:03:38.335Z,438.18
2023-02-15T02:03:48.350Z,438.21
2023-02-15T02:03:58.339Z,438.14
2023-02-15T02:04:08.337Z,438.11
2023-02-15T02:04:18.345Z,438.20
2023-02-15T02:04:28.338Z,438.15
2023-02-15T02:04:38.340Z,438.19
2023-02-15T02:04:48.350Z,438.17